sensor_id;sensor_type;location;lat;lon;timestamp;P1;durP1;ratioP1;P2;durP2;ratioP2
20535;SDS011;10426;49.420;8.390;2024-03-08T00:01:31;13.60;;;12.27;;
20535;SDS011;10426;49.420;8.390;2024-03-08T00:03:58;13.75;;;12.40;;
20535;SDS011;10426;49.420;8.390;2024-03-08T00:06:24;13.75;;;12.35;;
20535;SDS011;10426;49.420;8.390;2024-03-08T00:08:51;13.48;;;12.00;;
20535;SDS011;10426;49.420;8.390;2024-03-08T00:11:19;13.90;;;12.55;;
20535;SDS011;10426;49.420;8.390;2024-03-08T00:13:46;14.25;;;12.75;;
20535;SDS011;10426;49.420;8.390;2024-03-08T00:16:13;14.65;;;13.20;;
20535;SDS011;10426;49.420;8.390;2024-03-08T00:18:40;15.23;;;12.70;;
20535;SDS011;10426;49.420;8.390;2024-03-08T00:21:07;15.00;;;12.90;;
20535;SDS011;10426;49.420;8.390;2024-03-08T00:23:35;13.98;;;12.45;;
20535;SDS011;10426;49.420;8.390;2024-03-08T00:26:02;14.23;;;12.73;;
20535;SDS011;10426;49.420;8.390;2024-03-08T00:28:30;13.90;;;12.50;;
20535;SDS011;10426;49.420;8.390;2024-03-08T00:30:57;13.57;;;12.23;;
20535;SDS011;10426;49.420;8.390;2024-03-08T00:33:24;13.73;;;12.25;;
20535;SDS011;10426;49.420;8.390;2024-03-08T00:35:50;14.05;;;12.65;;
20535;SDS011;10426;49.420;8.390;2024-03-08T00:38:17;13.48;;;12.07;;
20535;SDS011;10426;49.420;8.390;2024-03-08T00:40:44;13.93;;;12.20;;
20535;SDS011;10426;49.420;8.390;2024-03-08T00:43:11;13.68;;;12.35;;
20535;SDS011;10426;49.420;8.390;2024-03-08T00:45:40;14.10;;;12.38;;
20535;SDS011;10426;49.420;8.390;2024-03-08T00:48:08;13.40;;;12.10;;
20535;SDS011;10426;49.420;8.390;2024-03-08T00:50:34;13.85;;;12.45;;
20535;SDS011;10426;49.420;8.390;2024-03-08T00:53:01;13.95;;;12.52;;
20535;SDS011;10426;49.420;8.390;2024-03-08T00:55:27;13.97;;;12.40;;
20535;SDS011;10426;49.420;8.390;2024-03-08T00:57:55;14.68;;;12.35;;
20535;SDS011;10426;49.420;8.390;2024-03-08T01:00:21;14.07;;;12.57;;
20535;SDS011;10426;49.420;8.390;2024-03-08T01:02:49;13.93;;;12.20;;
20535;SDS011;10426;49.420;8.390;2024-03-08T01:05:16;14.00;;;12.60;;
20535;SDS011;10426;49.420;8.390;2024-03-08T01:07:43;13.57;;;12.18;;
20535;SDS011;10426;49.420;8.390;2024-03-08T01:10:11;16.25;;;12.70;;
20535;SDS011;10426;49.420;8.390;2024-03-08T01:12:38;14.63;;;12.45;;
20535;SDS011;10426;49.420;8.390;2024-03-08T01:15:05;13.48;;;12.10;;
20535;SDS011;10426;49.420;8.390;2024-03-08T01:17:32;13.55;;;12.15;;
20535;SDS011;10426;49.420;8.390;2024-03-08T01:20:00;14.73;;;12.43;;
20535;SDS011;10426;49.420;8.390;2024-03-08T01:22:27;14.57;;;12.45;;
20535;SDS011;10426;49.420;8.390;2024-03-08T01:24:55;14.60;;;12.25;;
20535;SDS011;10426;49.420;8.390;2024-03-08T01:27:21;13.23;;;11.93;;
20535;SDS011;10426;49.420;8.390;2024-03-08T01:29:50;15.38;;;12.55;;
20535;SDS011;10426;49.420;8.390;2024-03-08T01:32:16;14.80;;;11.98;;
20535;SDS011;10426;49.420;8.390;2024-03-08T01:34:44;15.30;;;12.50;;
20535;SDS011;10426;49.420;8.390;2024-03-08T01:37:12;13.55;;;12.20;;
20535;SDS011;10426;49.420;8.390;2024-03-08T01:39:40;13.75;;;12.40;;
20535;SDS011;10426;49.420;8.390;2024-03-08T01:42:06;15.07;;;12.60;;
20535;SDS011;10426;49.420;8.390;2024-03-08T01:44:33;14.07;;;12.57;;
20535;SDS011;10426;49.420;8.390;2024-03-08T01:46:59;14.98;;;12.40;;
20535;SDS011;10426;49.420;8.390;2024-03-08T01:49:26;14.18;;;12.77;;
20535;SDS011;10426;49.420;8.390;2024-03-08T01:51:53;13.38;;;11.98;;
20535;SDS011;10426;49.420;8.390;2024-03-08T01:54:23;14.65;;;12.25;;
20535;SDS011;10426;49.420;8.390;2024-03-08T01:56:50;14.45;;;12.68;;
20535;SDS011;10426;49.420;8.390;2024-03-08T01:59:18;13.88;;;12.48;;
20535;SDS011;10426;49.420;8.390;2024-03-08T02:01:45;14.10;;;12.57;;
20535;SDS011;10426;49.420;8.390;2024-03-08T02:04:12;14.40;;;12.85;;
20535;SDS011;10426;49.420;8.390;2024-03-08T02:06:38;14.07;;;12.57;;
20535;SDS011;10426;49.420;8.390;2024-03-08T02:09:05;14.85;;;13.20;;
20535;SDS011;10426;49.420;8.390;2024-03-08T02:11:33;13.88;;;12.45;;
20535;SDS011;10426;49.420;8.390;2024-03-08T02:14:01;14.50;;;12.73;;
20535;SDS011;10426;49.420;8.390;2024-03-08T02:16:28;13.98;;;12.57;;
20535;SDS011;10426;49.420;8.390;2024-03-08T02:18:54;14.95;;;12.70;;
20535;SDS011;10426;49.420;8.390;2024-03-08T02:21:23;14.00;;;12.60;;
20535;SDS011;10426;49.420;8.390;2024-03-08T02:23:49;15.65;;;13.05;;
20535;SDS011;10426;49.420;8.390;2024-03-08T02:26:17;13.80;;;12.38;;
20535;SDS011;10426;49.420;8.390;2024-03-08T02:28:44;14.23;;;12.73;;
20535;SDS011;10426;49.420;8.390;2024-03-08T02:31:11;13.45;;;12.13;;
20535;SDS011;10426;49.420;8.390;2024-03-08T02:33:37;14.23;;;12.73;;
20535;SDS011;10426;49.420;8.390;2024-03-08T02:36:04;15.10;;;12.68;;
20535;SDS011;10426;49.420;8.390;2024-03-08T02:38:33;13.07;;;11.68;;
20535;SDS011;10426;49.420;8.390;2024-03-08T02:40:59;15.35;;;12.73;;
20535;SDS011;10426;49.420;8.390;2024-03-08T02:43:26;15.25;;;12.38;;
20535;SDS011;10426;49.420;8.390;2024-03-08T02:45:52;14.03;;;12.63;;
20535;SDS011;10426;49.420;8.390;2024-03-08T02:48:19;14.02;;;12.50;;
20535;SDS011;10426;49.420;8.390;2024-03-08T02:50:47;13.88;;;12.48;;
20535;SDS011;10426;49.420;8.390;2024-03-08T02:53:13;14.00;;;12.60;;
20535;SDS011;10426;49.420;8.390;2024-03-08T02:55:41;14.48;;;12.18;;
20535;SDS011;10426;49.420;8.390;2024-03-08T02:58:08;14.50;;;12.32;;
20535;SDS011;10426;49.420;8.390;2024-03-08T03:00:35;14.00;;;12.55;;
20535;SDS011;10426;49.420;8.390;2024-03-08T03:03:02;14.05;;;12.63;;
20535;SDS011;10426;49.420;8.390;2024-03-08T03:05:29;14.50;;;13.00;;
20535;SDS011;10426;49.420;8.390;2024-03-08T03:07:56;14.00;;;12.50;;
20535;SDS011;10426;49.420;8.390;2024-03-08T03:10:23;15.10;;;12.82;;
20535;SDS011;10426;49.420;8.390;2024-03-08T03:12:51;13.38;;;12.05;;
20535;SDS011;10426;49.420;8.390;2024-03-08T03:15:18;13.55;;;12.15;;
20535;SDS011;10426;49.420;8.390;2024-03-08T03:17:45;13.60;;;12.20;;
20535;SDS011;10426;49.420;8.390;2024-03-08T03:20:13;13.68;;;12.27;;
20535;SDS011;10426;49.420;8.390;2024-03-08T03:22:40;13.43;;;12.02;;
20535;SDS011;10426;49.420;8.390;2024-03-08T03:25:07;14.03;;;12.53;;
20535;SDS011;10426;49.420;8.390;2024-03-08T03:27:35;14.45;;;12.52;;
20535;SDS011;10426;49.420;8.390;2024-03-08T03:30:04;13.93;;;12.43;;
20535;SDS011;10426;49.420;8.390;2024-03-08T03:32:46;13.60;;;12.20;;
20535;SDS011;10426;49.420;8.390;2024-03-08T03:35:13;13.98;;;12.48;;
20535;SDS011;10426;49.420;8.390;2024-03-08T03:37:41;13.70;;;12.30;;
20535;SDS011;10426;49.420;8.390;2024-03-08T03:40:08;13.80;;;12.13;;
20535;SDS011;10426;49.420;8.390;2024-03-08T03:42:35;13.93;;;12.40;;
20535;SDS011;10426;49.420;8.390;2024-03-08T03:45:05;13.85;;;12.38;;
20535;SDS011;10426;49.420;8.390;2024-03-08T03:47:32;14.48;;;12.45;;
20535;SDS011;10426;49.420;8.390;2024-03-08T03:49:59;16.20;;;12.27;;
20535;SDS011;10426;49.420;8.390;2024-03-08T03:52:28;13.20;;;11.77;;
20535;SDS011;10426;49.420;8.390;2024-03-08T03:54:55;14.20;;;12.70;;
20535;SDS011;10426;49.420;8.390;2024-03-08T03:57:22;13.75;;;12.32;;
20535;SDS011;10426;49.420;8.390;2024-03-08T03:59:49;14.48;;;12.48;;
20535;SDS011;10426;49.420;8.390;2024-03-08T04:02:17;14.30;;;11.73;;
20535;SDS011;10426;49.420;8.390;2024-03-08T04:04:46;15.45;;;12.70;;
20535;SDS011;10426;49.420;8.390;2024-03-08T04:07:13;14.30;;;12.68;;
20535;SDS011;10426;49.420;8.390;2024-03-08T04:09:39;14.30;;;12.52;;
20535;SDS011;10426;49.420;8.390;2024-03-08T04:12:06;13.65;;;12.25;;
20535;SDS011;10426;49.420;8.390;2024-03-08T04:14:35;13.32;;;12.00;;
20535;SDS011;10426;49.420;8.390;2024-03-08T04:17:02;13.98;;;12.25;;
20535;SDS011;10426;49.420;8.390;2024-03-08T04:19:30;13.68;;;12.27;;
20535;SDS011;10426;49.420;8.390;2024-03-08T04:21:56;14.13;;;12.63;;
20535;SDS011;10426;49.420;8.390;2024-03-08T04:24:23;14.60;;;12.60;;
20535;SDS011;10426;49.420;8.390;2024-03-08T04:26:50;13.98;;;12.57;;
20535;SDS011;10426;49.420;8.390;2024-03-08T04:29:17;14.23;;;12.73;;
20535;SDS011;10426;49.420;8.390;2024-03-08T04:31:43;14.20;;;12.73;;
20535;SDS011;10426;49.420;8.390;2024-03-08T04:34:10;14.05;;;12.57;;
20535;SDS011;10426;49.420;8.390;2024-03-08T04:36:38;14.60;;;12.77;;
20535;SDS011;10426;49.420;8.390;2024-03-08T04:39:05;14.27;;;12.65;;
20535;SDS011;10426;49.420;8.390;2024-03-08T04:41:35;14.45;;;12.70;;
20535;SDS011;10426;49.420;8.390;2024-03-08T04:44:03;14.43;;;12.68;;
20535;SDS011;10426;49.420;8.390;2024-03-08T04:46:30;15.10;;;13.27;;
20535;SDS011;10426;49.420;8.390;2024-03-08T04:48:56;13.60;;;12.25;;
20535;SDS011;10426;49.420;8.390;2024-03-08T04:51:24;13.52;;;12.13;;
20535;SDS011;10426;49.420;8.390;2024-03-08T04:53:52;14.25;;;12.75;;
20535;SDS011;10426;49.420;8.390;2024-03-08T04:56:19;15.15;;;12.95;;
20535;SDS011;10426;49.420;8.390;2024-03-08T04:58:45;14.23;;;12.73;;
20535;SDS011;10426;49.420;8.390;2024-03-08T05:01:12;15.65;;;13.15;;
20535;SDS011;10426;49.420;8.390;2024-03-08T05:03:39;15.10;;;13.02;;
20535;SDS011;10426;49.420;8.390;2024-03-08T05:06:06;14.02;;;12.50;;
20535;SDS011;10426;49.420;8.390;2024-03-08T05:08:32;14.07;;;12.55;;
20535;SDS011;10426;49.420;8.390;2024-03-08T05:11:01;14.00;;;12.60;;
20535;SDS011;10426;49.420;8.390;2024-03-08T05:13:30;14.95;;;13.13;;
20535;SDS011;10426;49.420;8.390;2024-03-08T05:15:57;14.20;;;12.70;;
20535;SDS011;10426;49.420;8.390;2024-03-08T05:18:24;14.15;;;12.70;;
20535;SDS011;10426;49.420;8.390;2024-03-08T05:20:53;14.70;;;13.20;;
20535;SDS011;10426;49.420;8.390;2024-03-08T05:23:20;15.02;;;12.68;;
20535;SDS011;10426;49.420;8.390;2024-03-08T05:25:47;14.60;;;13.10;;
20535;SDS011;10426;49.420;8.390;2024-03-08T05:28:15;14.13;;;12.60;;
20535;SDS011;10426;49.420;8.390;2024-03-08T05:30:42;15.07;;;13.35;;
20535;SDS011;10426;49.420;8.390;2024-03-08T05:33:09;15.25;;;13.05;;
20535;SDS011;10426;49.420;8.390;2024-03-08T05:35:36;14.27;;;12.77;;
20535;SDS011;10426;49.420;8.390;2024-03-08T05:38:03;16.27;;;13.15;;
20535;SDS011;10426;49.420;8.390;2024-03-08T05:40:30;14.75;;;13.20;;
20535;SDS011;10426;49.420;8.390;2024-03-08T05:42:57;15.00;;;13.38;;
20535;SDS011;10426;49.420;8.390;2024-03-08T05:45:24;15.02;;;13.43;;
20535;SDS011;10426;49.420;8.390;2024-03-08T05:47:51;15.45;;;13.77;;
20535;SDS011;10426;49.420;8.390;2024-03-08T05:50:18;15.60;;;13.68;;
20535;SDS011;10426;49.420;8.390;2024-03-08T05:52:44;15.48;;;13.88;;
20535;SDS011;10426;49.420;8.390;2024-03-08T05:55:12;15.10;;;13.47;;
20535;SDS011;10426;49.420;8.390;2024-03-08T05:57:39;15.37;;;13.50;;
20535;SDS011;10426;49.420;8.390;2024-03-08T06:00:08;15.57;;;13.97;;
20535;SDS011;10426;49.420;8.390;2024-03-08T06:02:37;15.45;;;13.50;;
20535;SDS011;10426;49.420;8.390;2024-03-08T06:05:07;15.13;;;13.53;;
20535;SDS011;10426;49.420;8.390;2024-03-08T06:07:34;15.05;;;13.45;;
20535;SDS011;10426;49.420;8.390;2024-03-08T06:10:01;15.23;;;13.70;;
20535;SDS011;10426;49.420;8.390;2024-03-08T06:12:28;15.48;;;13.88;;
20535;SDS011;10426;49.420;8.390;2024-03-08T06:14:58;15.63;;;13.95;;
20535;SDS011;10426;49.420;8.390;2024-03-08T06:17:25;15.27;;;13.65;;
20535;SDS011;10426;49.420;8.390;2024-03-08T06:19:53;16.63;;;13.88;;
20535;SDS011;10426;49.420;8.390;2024-03-08T06:22:20;15.80;;;14.20;;
20535;SDS011;10426;49.420;8.390;2024-03-08T06:24:46;15.02;;;13.43;;
20535;SDS011;10426;49.420;8.390;2024-03-08T06:27:13;16.10;;;13.85;;
20535;SDS011;10426;49.420;8.390;2024-03-08T06:29:40;16.13;;;14.02;;
20535;SDS011;10426;49.420;8.390;2024-03-08T06:32:07;16.10;;;14.40;;
20535;SDS011;10426;49.420;8.390;2024-03-08T06:34:33;15.27;;;13.68;;
20535;SDS011;10426;49.420;8.390;2024-03-08T06:37:02;15.63;;;14.02;;
20535;SDS011;10426;49.420;8.390;2024-03-08T06:39:28;16.75;;;14.20;;
20535;SDS011;10426;49.420;8.390;2024-03-08T06:41:57;15.93;;;14.23;;
20535;SDS011;10426;49.420;8.390;2024-03-08T06:44:23;15.95;;;14.25;;
20535;SDS011;10426;49.420;8.390;2024-03-08T06:46:51;16.77;;;15.05;;
20535;SDS011;10426;49.420;8.390;2024-03-08T06:49:17;15.40;;;13.80;;
20535;SDS011;10426;49.420;8.390;2024-03-08T06:51:44;15.75;;;13.85;;
20535;SDS011;10426;49.420;8.390;2024-03-08T06:54:12;16.05;;;14.35;;
20535;SDS011;10426;49.420;8.390;2024-03-08T06:56:39;15.48;;;13.73;;
20535;SDS011;10426;49.420;8.390;2024-03-08T06:59:06;15.77;;;14.00;;
20535;SDS011;10426;49.420;8.390;2024-03-08T07:01:35;15.38;;;13.75;;
20535;SDS011;10426;49.420;8.390;2024-03-08T07:04:02;15.75;;;14.10;;
20535;SDS011;10426;49.420;8.390;2024-03-08T07:06:30;19.70;;;14.07;;
20535;SDS011;10426;49.420;8.390;2024-03-08T07:08:58;16.25;;;14.55;;
20535;SDS011;10426;49.420;8.390;2024-03-08T07:11:26;15.40;;;13.80;;
20535;SDS011;10426;49.420;8.390;2024-03-08T07:13:53;17.98;;;13.82;;
20535;SDS011;10426;49.420;8.390;2024-03-08T07:16:20;15.43;;;13.82;;
20535;SDS011;10426;49.420;8.390;2024-03-08T07:18:47;15.57;;;13.98;;
20535;SDS011;10426;49.420;8.390;2024-03-08T07:21:17;15.63;;;13.82;;
20535;SDS011;10426;49.420;8.390;2024-03-08T07:23:44;15.02;;;13.52;;
20535;SDS011;10426;49.420;8.390;2024-03-08T07:26:29;15.18;;;13.55;;
20535;SDS011;10426;49.420;8.390;2024-03-08T07:28:57;14.77;;;13.27;;
20535;SDS011;10426;49.420;8.390;2024-03-08T07:31:25;14.75;;;13.20;;
20535;SDS011;10426;49.420;8.390;2024-03-08T07:34:03;15.40;;;13.90;;
20535;SDS011;10426;49.420;8.390;2024-03-08T07:36:32;15.15;;;13.52;;
20535;SDS011;10426;49.420;8.390;2024-03-08T07:39:00;14.55;;;13.05;;
20535;SDS011;10426;49.420;8.390;2024-03-08T07:41:27;15.48;;;13.70;;
20535;SDS011;10426;49.420;8.390;2024-03-08T07:43:55;15.00;;;13.48;;
20535;SDS011;10426;49.420;8.390;2024-03-08T07:46:22;16.17;;;13.60;;
20535;SDS011;10426;49.420;8.390;2024-03-08T07:48:48;14.85;;;13.30;;
20535;SDS011;10426;49.420;8.390;2024-03-08T07:51:15;15.70;;;13.70;;
20535;SDS011;10426;49.420;8.390;2024-03-08T07:53:43;16.27;;;14.02;;
20535;SDS011;10426;49.420;8.390;2024-03-08T07:56:10;14.88;;;13.00;;
20535;SDS011;10426;49.420;8.390;2024-03-08T07:58:38;14.15;;;12.75;;
20535;SDS011;10426;49.420;8.390;2024-03-08T08:01:07;14.45;;;13.00;;
20535;SDS011;10426;49.420;8.390;2024-03-08T08:03:34;15.40;;;13.70;;
20535;SDS011;10426;49.420;8.390;2024-03-08T08:06:03;14.95;;;13.45;;
20535;SDS011;10426;49.420;8.390;2024-03-08T08:08:30;14.63;;;13.18;;
20535;SDS011;10426;49.420;8.390;2024-03-08T08:10:57;14.68;;;13.13;;
20535;SDS011;10426;49.420;8.390;2024-03-08T08:13:24;14.93;;;13.40;;
20535;SDS011;10426;49.420;8.390;2024-03-08T08:15:53;13.90;;;12.40;;
20535;SDS011;10426;49.420;8.390;2024-03-08T08:18:21;13.95;;;12.45;;
20535;SDS011;10426;49.420;8.390;2024-03-08T08:20:50;14.55;;;13.00;;
20535;SDS011;10426;49.420;8.390;2024-03-08T08:23:17;14.18;;;12.68;;
20535;SDS011;10426;49.420;8.390;2024-03-08T08:25:44;14.40;;;12.90;;
20535;SDS011;10426;49.420;8.390;2024-03-08T08:28:11;14.60;;;13.10;;
20535;SDS011;10426;49.420;8.390;2024-03-08T08:30:38;14.77;;;13.15;;
20535;SDS011;10426;49.420;8.390;2024-03-08T08:33:04;14.73;;;13.13;;
20535;SDS011;10426;49.420;8.390;2024-03-08T08:35:33;14.10;;;12.60;;
20535;SDS011;10426;49.420;8.390;2024-03-08T08:37:59;13.80;;;12.50;;
20535;SDS011;10426;49.420;8.390;2024-03-08T08:40:29;13.85;;;12.45;;
20535;SDS011;10426;49.420;8.390;2024-03-08T08:42:57;14.10;;;12.63;;
20535;SDS011;10426;49.420;8.390;2024-03-08T08:45:23;14.23;;;12.77;;
20535;SDS011;10426;49.420;8.390;2024-03-08T08:47:50;14.10;;;12.70;;
20535;SDS011;10426;49.420;8.390;2024-03-08T08:50:17;14.85;;;13.35;;
20535;SDS011;10426;49.420;8.390;2024-03-08T08:52:49;13.77;;;12.38;;
20535;SDS011;10426;49.420;8.390;2024-03-08T08:55:16;14.52;;;13.02;;
20535;SDS011;10426;49.420;8.390;2024-03-08T08:57:46;14.35;;;12.88;;
20535;SDS011;10426;49.420;8.390;2024-03-08T09:00:13;14.32;;;12.82;;
20535;SDS011;10426;49.420;8.390;2024-03-08T09:02:41;14.73;;;13.18;;
20535;SDS011;10426;49.420;8.390;2024-03-08T09:05:07;14.40;;;12.88;;
20535;SDS011;10426;49.420;8.390;2024-03-08T09:07:34;13.98;;;12.52;;
20535;SDS011;10426;49.420;8.390;2024-03-08T09:10:02;14.07;;;12.60;;
20535;SDS011;10426;49.420;8.390;2024-03-08T09:12:29;14.65;;;13.07;;
20535;SDS011;10426;49.420;8.390;2024-03-08T09:14:58;14.55;;;13.10;;
20535;SDS011;10426;49.420;8.390;2024-03-08T09:17:24;14.07;;;12.68;;
20535;SDS011;10426;49.420;8.390;2024-03-08T09:19:52;14.55;;;13.05;;
20535;SDS011;10426;49.420;8.390;2024-03-08T09:22:19;13.95;;;12.60;;
20535;SDS011;10426;49.420;8.390;2024-03-08T09:24:46;14.47;;;12.60;;
20535;SDS011;10426;49.420;8.390;2024-03-08T09:27:14;14.45;;;12.95;;
20535;SDS011;10426;49.420;8.390;2024-03-08T09:29:40;15.40;;;13.05;;
20535;SDS011;10426;49.420;8.390;2024-03-08T09:32:07;15.10;;;12.73;;
20535;SDS011;10426;49.420;8.390;2024-03-08T09:34:34;14.10;;;12.60;;
20535;SDS011;10426;49.420;8.390;2024-03-08T09:37:00;14.18;;;12.68;;
20535;SDS011;10426;49.420;8.390;2024-03-08T09:39:29;14.25;;;12.77;;
20535;SDS011;10426;49.420;8.390;2024-03-08T09:41:56;14.45;;;12.77;;
20535;SDS011;10426;49.420;8.390;2024-03-08T09:44:24;14.15;;;12.65;;
20535;SDS011;10426;49.420;8.390;2024-03-08T09:46:51;13.68;;;12.27;;
20535;SDS011;10426;49.420;8.390;2024-03-08T09:49:18;14.20;;;12.68;;
20535;SDS011;10426;49.420;8.390;2024-03-08T09:51:46;13.98;;;12.65;;
20535;SDS011;10426;49.420;8.390;2024-03-08T09:54:13;13.82;;;12.35;;
20535;SDS011;10426;49.420;8.390;2024-03-08T09:56:42;14.18;;;11.95;;
20535;SDS011;10426;49.420;8.390;2024-03-08T09:59:09;13.32;;;11.93;;
20535;SDS011;10426;49.420;8.390;2024-03-08T10:02:08;13.85;;;12.45;;
20535;SDS011;10426;49.420;8.390;2024-03-08T10:04:40;12.57;;;11.38;;
20535;SDS011;10426;49.420;8.390;2024-03-08T10:07:07;13.23;;;11.80;;
20535;SDS011;10426;49.420;8.390;2024-03-08T10:09:34;12.93;;;11.63;;
20535;SDS011;10426;49.420;8.390;2024-03-08T10:12:01;12.85;;;11.65;;
20535;SDS011;10426;49.420;8.390;2024-03-08T10:14:28;12.95;;;11.65;;
20535;SDS011;10426;49.420;8.390;2024-03-08T10:16:55;12.85;;;11.57;;
20535;SDS011;10426;49.420;8.390;2024-03-08T10:19:26;12.57;;;11.38;;
20535;SDS011;10426;49.420;8.390;2024-03-08T10:21:55;12.73;;;11.43;;
20535;SDS011;10426;49.420;8.390;2024-03-08T10:24:24;12.98;;;11.68;;
20535;SDS011;10426;49.420;8.390;2024-03-08T10:26:53;12.60;;;11.30;;
20535;SDS011;10426;49.420;8.390;2024-03-08T10:29:20;13.90;;;12.50;;
20535;SDS011;10426;49.420;8.390;2024-03-08T10:31:47;12.40;;;11.20;;
20535;SDS011;10426;49.420;8.390;2024-03-08T10:34:16;13.10;;;11.80;;
20535;SDS011;10426;49.420;8.390;2024-03-08T10:36:44;12.90;;;11.60;;
20535;SDS011;10426;49.420;8.390;2024-03-08T10:39:13;13.35;;;11.98;;
20535;SDS011;10426;49.420;8.390;2024-03-08T10:41:42;13.43;;;12.02;;
20535;SDS011;10426;49.420;8.390;2024-03-08T10:44:14;12.75;;;11.40;;
20535;SDS011;10426;49.420;8.390;2024-03-08T10:46:50;12.63;;;11.32;;
20535;SDS011;10426;49.420;8.390;2024-03-08T10:49:22;12.63;;;11.40;;
20535;SDS011;10426;49.420;8.390;2024-03-08T10:51:53;12.93;;;11.70;;
20535;SDS011;10426;49.420;8.390;2024-03-08T10:54:19;12.57;;;11.27;;
20535;SDS011;10426;49.420;8.390;2024-03-08T10:56:46;12.40;;;11.10;;
20535;SDS011;10426;49.420;8.390;2024-03-08T10:59:14;13.50;;;11.98;;
20535;SDS011;10426;49.420;8.390;2024-03-08T11:01:42;12.90;;;11.60;;
20535;SDS011;10426;49.420;8.390;2024-03-08T11:04:09;12.82;;;11.60;;
20535;SDS011;10426;49.420;8.390;2024-03-08T11:06:41;12.93;;;11.63;;
20535;SDS011;10426;49.420;8.390;2024-03-08T11:09:24;13.23;;;11.82;;
20535;SDS011;10426;49.420;8.390;2024-03-08T11:12:09;12.70;;;11.40;;
20535;SDS011;10426;49.420;8.390;2024-03-08T11:14:45;12.77;;;11.50;;
20535;SDS011;10426;49.420;8.390;2024-03-08T11:17:14;12.37;;;11.17;;
20535;SDS011;10426;49.420;8.390;2024-03-08T11:19:45;12.77;;;11.23;;
20535;SDS011;10426;49.420;8.390;2024-03-08T11:22:19;12.82;;;11.50;;
20535;SDS011;10426;49.420;8.390;2024-03-08T11:24:48;12.85;;;11.50;;
20535;SDS011;10426;49.420;8.390;2024-03-08T11:27:15;12.52;;;11.15;;
20535;SDS011;10426;49.420;8.390;2024-03-08T11:29:42;12.90;;;11.60;;
20535;SDS011;10426;49.420;8.390;2024-03-08T11:32:09;12.50;;;11.20;;
20535;SDS011;10426;49.420;8.390;2024-03-08T11:34:36;13.32;;;11.93;;
20535;SDS011;10426;49.420;8.390;2024-03-08T11:37:05;12.45;;;11.15;;
20535;SDS011;10426;49.420;8.390;2024-03-08T11:39:35;13.13;;;11.85;;
20535;SDS011;10426;49.420;8.390;2024-03-08T11:42:04;12.88;;;11.57;;
20535;SDS011;10426;49.420;8.390;2024-03-08T11:44:30;13.30;;;11.20;;
20535;SDS011;10426;49.420;8.390;2024-03-08T11:46:58;13.18;;;11.88;;
20535;SDS011;10426;49.420;8.390;2024-03-08T11:49:24;12.60;;;11.30;;
20535;SDS011;10426;49.420;8.390;2024-03-08T11:51:51;12.55;;;11.32;;
20535;SDS011;10426;49.420;8.390;2024-03-08T11:54:18;12.80;;;11.60;;
20535;SDS011;10426;49.420;8.390;2024-03-08T11:56:45;12.50;;;11.20;;
20535;SDS011;10426;49.420;8.390;2024-03-08T11:59:14;12.32;;;11.13;;
20535;SDS011;10426;49.420;8.390;2024-03-08T12:01:43;12.38;;;11.15;;
20535;SDS011;10426;49.420;8.390;2024-03-08T12:04:11;13.57;;;11.20;;
20535;SDS011;10426;49.420;8.390;2024-03-08T12:06:38;12.70;;;11.40;;
20535;SDS011;10426;49.420;8.390;2024-03-08T12:09:07;12.18;;;10.98;;
20535;SDS011;10426;49.420;8.390;2024-03-08T12:11:34;12.90;;;11.65;;
20535;SDS011;10426;49.420;8.390;2024-03-08T12:14:01;13.07;;;11.77;;
20535;SDS011;10426;49.420;8.390;2024-03-08T12:16:29;12.30;;;11.10;;
20535;SDS011;10426;49.420;8.390;2024-03-08T12:18:56;12.60;;;11.30;;
20535;SDS011;10426;49.420;8.390;2024-03-08T12:21:25;12.65;;;11.35;;
20535;SDS011;10426;49.420;8.390;2024-03-08T12:24:04;12.45;;;11.15;;
20535;SDS011;10426;49.420;8.390;2024-03-08T12:26:31;12.85;;;11.48;;
20535;SDS011;10426;49.420;8.390;2024-03-08T12:29:14;12.70;;;11.40;;
20535;SDS011;10426;49.420;8.390;2024-03-08T12:31:43;13.30;;;11.75;;
20535;SDS011;10426;49.420;8.390;2024-03-08T12:34:10;13.20;;;11.90;;
20535;SDS011;10426;49.420;8.390;2024-03-08T12:36:37;13.15;;;11.85;;
20535;SDS011;10426;49.420;8.390;2024-03-08T12:39:05;12.50;;;11.30;;
20535;SDS011;10426;49.420;8.390;2024-03-08T12:41:39;12.60;;;11.30;;
20535;SDS011;10426;49.420;8.390;2024-03-08T12:44:06;12.85;;;11.55;;
20535;SDS011;10426;49.420;8.390;2024-03-08T12:46:35;12.88;;;11.57;;
20535;SDS011;10426;49.420;8.390;2024-03-08T12:49:03;12.85;;;11.55;;
20535;SDS011;10426;49.420;8.390;2024-03-08T12:51:30;13.32;;;11.93;;
20535;SDS011;10426;49.420;8.390;2024-03-08T12:53:56;12.88;;;11.68;;
20535;SDS011;10426;49.420;8.390;2024-03-08T12:56:28;12.90;;;11.70;;
20535;SDS011;10426;49.420;8.390;2024-03-08T12:58:56;12.73;;;11.43;;
20535;SDS011;10426;49.420;8.390;2024-03-08T13:01:22;12.23;;;11.05;;
20535;SDS011;10426;49.420;8.390;2024-03-08T13:03:49;12.47;;;11.20;;
20535;SDS011;10426;49.420;8.390;2024-03-08T13:06:17;12.25;;;11.05;;
20535;SDS011;10426;49.420;8.390;2024-03-08T13:08:45;12.90;;;11.50;;
20535;SDS011;10426;49.420;8.390;2024-03-08T13:11:11;12.73;;;11.40;;
20535;SDS011;10426;49.420;8.390;2024-03-08T13:13:39;12.70;;;11.40;;
20535;SDS011;10426;49.420;8.390;2024-03-08T13:16:06;13.05;;;11.68;;
20535;SDS011;10426;49.420;8.390;2024-03-08T13:18:34;12.75;;;11.50;;
20535;SDS011;10426;49.420;8.390;2024-03-08T13:21:00;13.07;;;11.70;;
20535;SDS011;10426;49.420;8.390;2024-03-08T13:23:31;13.43;;;11.88;;
20535;SDS011;10426;49.420;8.390;2024-03-08T13:25:58;13.57;;;11.68;;
20535;SDS011;10426;49.420;8.390;2024-03-08T13:28:25;12.60;;;11.30;;
20535;SDS011;10426;49.420;8.390;2024-03-08T13:30:57;12.77;;;11.52;;
20535;SDS011;10426;49.420;8.390;2024-03-08T13:33:23;12.75;;;11.45;;
20535;SDS011;10426;49.420;8.390;2024-03-08T13:35:50;13.63;;;12.23;;
20535;SDS011;10426;49.420;8.390;2024-03-08T13:38:17;13.15;;;11.85;;
20535;SDS011;10426;49.420;8.390;2024-03-08T13:40:47;13.07;;;11.77;;
20535;SDS011;10426;49.420;8.390;2024-03-08T13:43:14;12.10;;;10.90;;
20535;SDS011;10426;49.420;8.390;2024-03-08T13:45:41;12.40;;;11.20;;
20535;SDS011;10426;49.420;8.390;2024-03-08T13:48:07;12.63;;;11.35;;
20535;SDS011;10426;49.420;8.390;2024-03-08T13:50:38;12.75;;;11.45;;
20535;SDS011;10426;49.420;8.390;2024-03-08T13:53:05;12.02;;;10.93;;
20535;SDS011;10426;49.420;8.390;2024-03-08T13:55:31;12.07;;;10.97;;
20535;SDS011;10426;49.420;8.390;2024-03-08T13:58:00;11.80;;;10.70;;
20535;SDS011;10426;49.420;8.390;2024-03-08T14:00:27;12.20;;;11.05;;
20535;SDS011;10426;49.420;8.390;2024-03-08T14:02:58;12.43;;;11.13;;
20535;SDS011;10426;49.420;8.390;2024-03-08T14:05:25;12.55;;;11.25;;
20535;SDS011;10426;49.420;8.390;2024-03-08T14:07:52;12.18;;;11.07;;
20535;SDS011;10426;49.420;8.390;2024-03-08T14:10:19;11.65;;;10.63;;
20535;SDS011;10426;49.420;8.390;2024-03-08T14:12:48;11.32;;;10.30;;
20535;SDS011;10426;49.420;8.390;2024-03-08T14:15:17;11.50;;;10.50;;
20535;SDS011;10426;49.420;8.390;2024-03-08T14:17:43;12.35;;;11.23;;
20535;SDS011;10426;49.420;8.390;2024-03-08T14:20:11;12.40;;;11.20;;
20535;SDS011;10426;49.420;8.390;2024-03-08T14:22:38;13.00;;;11.70;;
20535;SDS011;10426;49.420;8.390;2024-03-08T14:25:05;12.63;;;11.43;;